sensor_id;sensor_type;location;lat;lon;timestamp;temperature;humidity
75457;SHT31;64036;48.266;14.192;2022-11-27T00:01:40;5.34;86.46
75457;SHT31;64036;48.266;14.192;2022-11-27T00:04:07;5.31;86.72
75457;SHT31;64036;48.266;14.192;2022-11-27T00:06:34;5.29;86.91
75457;SHT31;64036;48.266;14.192;2022-11-27T00:09:04;5.30;87.08
75457;SHT31;64036;48.266;14.192;2022-11-27T00:11:34;5.32;87.17
75457;SHT31;64036;48.266;14.192;2022-11-27T00:14:00;5.34;87.20
75457;SHT31;64036;48.266;14.192;2022-11-27T00:16:26;5.33;87.20
75457;SHT31;64036;48.266;14.192;2022-11-27T00:18:52;5.33;87.19
75457;SHT31;64036;48.266;14.192;2022-11-27T00:21:19;5.32;87.13
75457;SHT31;64036;48.266;14.192;2022-11-27T00:23:54;5.29;87.10
75457;SHT31;64036;48.266;14.192;2022-11-27T00:26:22;5.24;87.10
75457;SHT31;64036;48.266;14.192;2022-11-27T00:28:49;5.20;87.10
75457;SHT31;64036;48.266;14.192;2022-11-27T00:31:19;5.14;87.10
75457;SHT31;64036;48.266;14.192;2022-11-27T00:33:53;5.10;87.02
75457;SHT31;64036;48.266;14.192;2022-11-27T00:36:20;5.05;87.01
75457;SHT31;64036;48.266;14.192;2022-11-27T00:38:46;5.00;86.98
75457;SHT31;64036;48.266;14.192;2022-11-27T00:41:19;4.96;86.87
75457;SHT31;64036;48.266;14.192;2022-11-27T00:43:49;4.91;86.81
75457;SHT31;64036;48.266;14.192;2022-11-27T00:46:17;4.89;86.70
75457;SHT31;64036;48.266;14.192;2022-11-27T00:48:45;4.86;86.58
75457;SHT31;64036;48.266;14.192;2022-11-27T00:51:13;4.82;86.36
75457;SHT31;64036;48.266;14.192;2022-11-27T00:53:41;4.76;86.26
75457;SHT31;64036;48.266;14.192;2022-11-27T00:56:08;4.72;86.11
75457;SHT31;64036;48.266;14.192;2022-11-27T00:58:40;4.64;85.87
75457;SHT31;64036;48.266;14.192;2022-11-27T01:01:06;4.50;85.66
75457;SHT31;64036;48.266;14.192;2022-11-27T01:03:32;4.34;85.99
75457;SHT31;64036;48.266;14.192;2022-11-27T01:06:03;4.30;86.31
75457;SHT31;64036;48.266;14.192;2022-11-27T01:08:31;4.27;86.23
75457;SHT31;64036;48.266;14.192;2022-11-27T01:10:57;4.22;86.16
75457;SHT31;64036;48.266;14.192;2022-11-27T01:13:34;4.13;86.07
75457;SHT31;64036;48.266;14.192;2022-11-27T01:16:05;4.05;86.14
75457;SHT31;64036;48.266;14.192;2022-11-27T01:18:34;4.02;86.29
75457;SHT31;64036;48.266;14.192;2022-11-27T01:21:02;4.00;86.26
75457;SHT31;64036;48.266;14.192;2022-11-27T01:23:29;3.95;86.23
75457;SHT31;64036;48.266;14.192;2022-11-27T01:25:55;3.91;86.30
75457;SHT31;64036;48.266;14.192;2022-11-27T01:28:21;3.86;86.20
75457;SHT31;64036;48.266;14.192;2022-11-27T01:30:48;3.80;86.12
75457;SHT31;64036;48.266;14.192;2022-11-27T01:33:15;3.74;86.12
75457;SHT31;64036;48.266;14.192;2022-11-27T01:35:42;3.71;86.19
75457;SHT31;64036;48.266;14.192;2022-11-27T01:38:20;3.69;86.16
75457;SHT31;64036;48.266;14.192;2022-11-27T01:40:47;3.67;86.19
75457;SHT31;64036;48.266;14.192;2022-11-27T01:43:14;3.65;86.20
75457;SHT31;64036;48.266;14.192;2022-11-27T01:45:40;3.64;86.20
75457;SHT31;64036;48.266;14.192;2022-11-27T01:48:07;3.64;86.25
75457;SHT31;64036;48.266;14.192;2022-11-27T01:50:36;3.64;86.36
75457;SHT31;64036;48.266;14.192;2022-11-27T01:53:12;3.67;86.55
75457;SHT31;64036;48.266;14.192;2022-11-27T01:55:53;3.69;86.48
75457;SHT31;64036;48.266;14.192;2022-11-27T01:58:24;3.69;86.38
75457;SHT31;64036;48.266;14.192;2022-11-27T02:00:53;3.69;86.37
75457;SHT31;64036;48.266;14.192;2022-11-27T02:03:19;3.68;86.57
75457;SHT31;64036;48.266;14.192;2022-11-27T02:05:45;3.68;86.70
75457;SHT31;64036;48.266;14.192;2022-11-27T02:08:11;3.69;86.90
75457;SHT31;64036;48.266;14.192;2022-11-27T02:14:14;3.74;86.99
75457;SHT31;64036;48.266;14.192;2022-11-27T02:29:59;3.69;86.62
75457;SHT31;64036;48.266;14.192;2022-11-27T02:33:10;3.67;86.68
75457;SHT31;64036;48.266;14.192;2022-11-27T02:35:28;3.65;86.67
75457;SHT31;64036;48.266;14.192;2022-11-27T02:38:33;3.62;86.70
75457;SHT31;64036;48.266;14.192;2022-11-27T02:43:37;3.60;86.84
75457;SHT31;64036;48.266;14.192;2022-11-27T02:46:07;3.61;86.94
75457;SHT31;64036;48.266;14.192;2022-11-27T02:48:37;3.64;86.99
75457;SHT31;64036;48.266;14.192;2022-11-27T02:51:08;3.65;86.97
75457;SHT31;64036;48.266;14.192;2022-11-27T02:53:37;3.66;86.96
75457;SHT31;64036;48.266;14.192;2022-11-27T02:56:11;3.65;86.95
75457;SHT31;64036;48.266;14.192;2022-11-27T02:58:42;3.65;86.91
75457;SHT31;64036;48.266;14.192;2022-11-27T03:01:12;3.64;86.96
75457;SHT31;64036;48.266;14.192;2022-11-27T03:03:44;3.64;87.04
75457;SHT31;64036;48.266;14.192;2022-11-27T03:06:19;3.64;87.13
75457;SHT31;64036;48.266;14.192;2022-11-27T03:09:05;3.66;87.19
75457;SHT31;64036;48.266;14.192;2022-11-27T03:11:36;3.67;87.19
75457;SHT31;64036;48.266;14.192;2022-11-27T03:14:05;3.69;87.25
75457;SHT31;64036;48.266;14.192;2022-11-27T03:20:06;3.74;87.41
75457;SHT31;64036;48.266;14.192;2022-11-27T03:22:55;3.76;87.41
75457;SHT31;64036;48.266;14.192;2022-11-27T03:25:22;3.78;87.38
75457;SHT31;64036;48.266;14.192;2022-11-27T03:28:07;3.78;87.32
75457;SHT31;64036;48.266;14.192;2022-11-27T03:30:34;3.77;87.23
75457;SHT31;64036;48.266;14.192;2022-11-27T03:33:00;3.78;87.38
75457;SHT31;64036;48.266;14.192;2022-11-27T03:35:26;3.79;87.47
75457;SHT31;64036;48.266;14.192;2022-11-27T03:37:52;3.81;87.43
75457;SHT31;64036;48.266;14.192;2022-11-27T03:40:19;3.80;87.46
75457;SHT31;64036;48.266;14.192;2022-11-27T03:42:57;3.83;87.50
75457;SHT31;64036;48.266;14.192;2022-11-27T03:49:30;3.85;87.50
75457;SHT31;64036;48.266;14.192;2022-11-27T03:51:39;3.86;87.52
75457;SHT31;64036;48.266;14.192;2022-11-27T03:57:28;3.93;87.70
75457;SHT31;64036;48.266;14.192;2022-11-27T04:00:04;3.98;87.70
75457;SHT31;64036;48.266;14.192;2022-11-27T04:02:43;4.00;87.69
75457;SHT31;64036;48.266;14.192;2022-11-27T04:05:14;3.99;87.50
75457;SHT31;64036;48.266;14.192;2022-11-27T04:07:40;3.93;87.35
75457;SHT31;64036;48.266;14.192;2022-11-27T04:10:07;3.95;87.52
75457;SHT31;64036;48.266;14.192;2022-11-27T04:12:34;3.97;87.50
75457;SHT31;64036;48.266;14.192;2022-11-27T04:15:00;4.00;87.58
75457;SHT31;64036;48.266;14.192;2022-11-27T04:17:25;4.05;87.61
75457;SHT31;64036;48.266;14.192;2022-11-27T04:19:51;4.08;87.58
75457;SHT31;64036;48.266;14.192;2022-11-27T04:22:17;4.13;87.50
75457;SHT31;64036;48.266;14.192;2022-11-27T04:24:43;4.17;87.52
75457;SHT31;64036;48.266;14.192;2022-11-27T04:27:08;4.24;87.63
75457;SHT31;64036;48.266;14.192;2022-11-27T04:29:34;4.28;87.53
75457;SHT31;64036;48.266;14.192;2022-11-27T04:32:01;4.31;87.40
75457;SHT31;64036;48.266;14.192;2022-11-27T04:34:27;4.33;87.38
75457;SHT31;64036;48.266;14.192;2022-11-27T04:36:53;4.36;87.38
75457;SHT31;64036;48.266;14.192;2022-11-27T04:39:19;4.41;87.43
75457;SHT31;64036;48.266;14.192;2022-11-27T04:41:44;4.47;87.42
75457;SHT31;64036;48.266;14.192;2022-11-27T04:44:10;4.49;87.39
75457;SHT31;64036;48.266;14.192;2022-11-27T04:46:36;4.51;87.39
75457;SHT31;64036;48.266;14.192;2022-11-27T04:49:02;4.50;87.26
75457;SHT31;64036;48.266;14.192;2022-11-27T04:51:28;4.46;87.25
75457;SHT31;64036;48.266;14.192;2022-11-27T04:53:53;4.45;87.39
75457;SHT31;64036;48.266;14.192;2022-11-27T04:56:19;4.46;87.40
75457;SHT31;64036;48.266;14.192;2022-11-27T04:58:45;4.48;87.54
75457;SHT31;64036;48.266;14.192;2022-11-27T05:01:10;4.51;87.57
75457;SHT31;64036;48.266;14.192;2022-11-27T05:03:36;4.57;87.58
75457;SHT31;64036;48.266;14.192;2022-11-27T05:06:01;4.69;87.46
75457;SHT31;64036;48.266;14.192;2022-11-27T05:08:28;4.76;87.31
75457;SHT31;64036;48.266;14.192;2022-11-27T05:11:06;4.82;87.27
75457;SHT31;64036;48.266;14.192;2022-11-27T05:13:36;4.90;87.22
75457;SHT31;64036;48.266;14.192;2022-11-27T05:16:02;4.93;87.06
75457;SHT31;64036;48.266;14.192;2022-11-27T05:18:28;4.98;87.05
75457;SHT31;64036;48.266;14.192;2022-11-27T05:20:55;5.00;87.02
75457;SHT31;64036;48.266;14.192;2022-11-27T05:23:29;5.07;87.06
75457;SHT31;64036;48.266;14.192;2022-11-27T05:25:55;5.11;86.79
75457;SHT31;64036;48.266;14.192;2022-11-27T05:28:21;5.11;86.63
75457;SHT31;64036;48.266;14.192;2022-11-27T05:30:48;5.13;86.64
75457;SHT31;64036;48.266;14.192;2022-11-27T05:33:15;5.18;86.54
75457;SHT31;64036;48.266;14.192;2022-11-27T05:35:42;5.21;86.38
75457;SHT31;64036;48.266;14.192;2022-11-27T05:38:09;5.22;86.30
75457;SHT31;64036;48.266;14.192;2022-11-27T05:40:36;5.24;86.30
75457;SHT31;64036;48.266;14.192;2022-11-27T05:43:03;5.23;86.22
75457;SHT31;64036;48.266;14.192;2022-11-27T05:45:29;5.23;86.29
75457;SHT31;64036;48.266;14.192;2022-11-27T05:47:55;5.25;86.35
75457;SHT31;64036;48.266;14.192;2022-11-27T05:50:20;5.23;86.15
75457;SHT31;64036;48.266;14.192;2022-11-27T05:52:46;5.24;86.31
75457;SHT31;64036;48.266;14.192;2022-11-27T05:55:11;5.28;86.39
75457;SHT31;64036;48.266;14.192;2022-11-27T05:57:37;5.32;86.38
75457;SHT31;64036;48.266;14.192;2022-11-27T06:00:03;5.36;86.39
75457;SHT31;64036;48.266;14.192;2022-11-27T06:02:31;5.38;86.29
75457;SHT31;64036;48.266;14.192;2022-11-27T06:04:56;5.41;86.27
75457;SHT31;64036;48.266;14.192;2022-11-27T06:07:22;5.41;86.10
75457;SHT31;64036;48.266;14.192;2022-11-27T06:09:47;5.42;86.19
75457;SHT31;64036;48.266;14.192;2022-11-27T06:12:13;5.45;86.26
75457;SHT31;64036;48.266;14.192;2022-11-27T06:14:38;5.49;86.21
75457;SHT31;64036;48.266;14.192;2022-11-27T06:17:04;5.49;86.06
75457;SHT31;64036;48.266;14.192;2022-11-27T06:19:30;5.46;85.94
75457;SHT31;64036;48.266;14.192;2022-11-27T06:21:55;5.48;86.02
75457;SHT31;64036;48.266;14.192;2022-11-27T06:24:21;5.49;86.01
75457;SHT31;64036;48.266;14.192;2022-11-27T06:26:46;5.51;86.03
75457;SHT31;64036;48.266;14.192;2022-11-27T06:29:14;5.48;85.82
75457;SHT31;64036;48.266;14.192;2022-11-27T06:31:40;5.45;85.79
75457;SHT31;64036;48.266;14.192;2022-11-27T06:34:06;5.44;85.79
75457;SHT31;64036;48.266;14.192;2022-11-27T06:36:33;5.43;85.82
75457;SHT31;64036;48.266;14.192;2022-11-27T06:39:02;5.46;85.89
75457;SHT31;64036;48.266;14.192;2022-11-27T06:41:30;5.42;85.75
75457;SHT31;64036;48.266;14.192;2022-11-27T06:43:57;5.42;85.82
75457;SHT31;64036;48.266;14.192;2022-11-27T06:46:24;5.44;86.02
75457;SHT31;64036;48.266;14.192;2022-11-27T06:48:52;5.44;85.90
75457;SHT31;64036;48.266;14.192;2022-11-27T06:51:22;5.41;85.80
75457;SHT31;64036;48.266;14.192;2022-11-27T06:53:51;5.39;85.84
75457;SHT31;64036;48.266;14.192;2022-11-27T06:56:19;5.39;85.80
75457;SHT31;64036;48.266;14.192;2022-11-27T06:58:50;5.39;85.72
75457;SHT31;64036;48.266;14.192;2022-11-27T07:01:21;5.34;85.61
75457;SHT31;64036;48.266;14.192;2022-11-27T07:03:48;5.30;85.68
75457;SHT31;64036;48.266;14.192;2022-11-27T07:06:17;5.28;85.78
75457;SHT31;64036;48.266;14.192;2022-11-27T07:08:46;5.29;85.73
75457;SHT31;64036;48.266;14.192;2022-11-27T07:11:17;5.24;85.56
75457;SHT31;64036;48.266;14.192;2022-11-27T07:13:46;5.22;85.60
75457;SHT31;64036;48.266;14.192;2022-11-27T07:16:13;5.22;85.61
75457;SHT31;64036;48.266;14.192;2022-11-27T07:18:41;5.21;85.69
75457;SHT31;64036;48.266;14.192;2022-11-27T07:21:12;5.16;85.72
75457;SHT31;64036;48.266;14.192;2022-11-27T07:23:39;5.12;85.85
75457;SHT31;64036;48.266;14.192;2022-11-27T07:26:09;5.03;85.96
75457;SHT31;64036;48.266;14.192;2022-11-27T07:28:38;4.98;86.10
75457;SHT31;64036;48.266;14.192;2022-11-27T07:31:04;4.97;86.21
75457;SHT31;64036;48.266;14.192;2022-11-27T07:33:30;4.98;86.20
75457;SHT31;64036;48.266;14.192;2022-11-27T07:36:04;4.96;86.13
75457;SHT31;64036;48.266;14.192;2022-11-27T07:38:33;4.99;86.01
75457;SHT31;64036;48.266;14.192;2022-11-27T07:40:59;4.98;85.98
75457;SHT31;64036;48.266;14.192;2022-11-27T07:43:26;4.95;86.18
75457;SHT31;64036;48.266;14.192;2022-11-27T07:45:53;4.95;86.29
75457;SHT31;64036;48.266;14.192;2022-11-27T07:48:18;5.00;86.30
75457;SHT31;64036;48.266;14.192;2022-11-27T07:50:44;5.06;86.25
75457;SHT31;64036;48.266;14.192;2022-11-27T07:53:10;5.08;86.08
75457;SHT31;64036;48.266;14.192;2022-11-27T07:55:39;5.09;85.98
75457;SHT31;64036;48.266;14.192;2022-11-27T07:58:06;5.13;86.03
75457;SHT31;64036;48.266;14.192;2022-11-27T08:00:33;5.18;85.92
75457;SHT31;64036;48.266;14.192;2022-11-27T08:02:59;5.23;85.85
75457;SHT31;64036;48.266;14.192;2022-11-27T08:05:26;5.28;85.78
75457;SHT31;64036;48.266;14.192;2022-11-27T08:07:52;5.33;85.75
75457;SHT31;64036;48.266;14.192;2022-11-27T08:10:17;5.36;85.63
75457;SHT31;64036;48.266;14.192;2022-11-27T08:12:43;5.40;85.56
75457;SHT31;64036;48.266;14.192;2022-11-27T08:15:09;5.46;85.61
75457;SHT31;64036;48.266;14.192;2022-11-27T08:17:35;5.50;85.46
75457;SHT31;64036;48.266;14.192;2022-11-27T08:20:01;5.51;85.37
75457;SHT31;64036;48.266;14.192;2022-11-27T08:22:28;5.53;85.17
75457;SHT31;64036;48.266;14.192;2022-11-27T08:24:53;5.50;85.09
75457;SHT31;64036;48.266;14.192;2022-11-27T08:27:19;5.52;85.10
75457;SHT31;64036;48.266;14.192;2022-11-27T08:29:45;5.52;85.04
75457;SHT31;64036;48.266;14.192;2022-11-27T08:32:11;5.52;84.90
75457;SHT31;64036;48.266;14.192;2022-11-27T08:34:37;5.53;84.89
75457;SHT31;64036;48.266;14.192;2022-11-27T08:37:06;5.54;84.80
75457;SHT31;64036;48.266;14.192;2022-11-27T08:39:32;5.55;84.88
75457;SHT31;64036;48.266;14.192;2022-11-27T08:41:57;5.58;84.80
75457;SHT31;64036;48.266;14.192;2022-11-27T08:44:24;5.60;84.68
75457;SHT31;64036;48.266;14.192;2022-11-27T08:46:49;5.57;84.59
75457;SHT31;64036;48.266;14.192;2022-11-27T08:49:15;5.54;84.41
75457;SHT31;64036;48.266;14.192;2022-11-27T08:51:41;5.49;84.47
75457;SHT31;64036;48.266;14.192;2022-11-27T08:54:07;5.49;84.63
75457;SHT31;64036;48.266;14.192;2022-11-27T08:56:32;5.49;84.51
75457;SHT31;64036;48.266;14.192;2022-11-27T08:58:58;5.46;84.32
75457;SHT31;64036;48.266;14.192;2022-11-27T09:01:28;5.45;84.40
75457;SHT31;64036;48.266;14.192;2022-11-27T09:03:56;5.45;84.41
75457;SHT31;64036;48.266;14.192;2022-11-27T09:06:23;5.46;84.51
75457;SHT31;64036;48.266;14.192;2022-11-27T09:08:57;5.45;84.48
75457;SHT31;64036;48.266;14.192;2022-11-27T09:11:25;5.47;84.54
75457;SHT31;64036;48.266;14.192;2022-11-27T09:13:53;5.47;84.47
75457;SHT31;64036;48.266;14.192;2022-11-27T09:16:19;5.45;84.36
75457;SHT31;64036;48.266;14.192;2022-11-27T09:18:47;5.43;84.32
75457;SHT31;64036;48.266;14.192;2022-11-27T09:21:15;5.42;84.41
75457;SHT31;64036;48.266;14.192;2022-11-27T09:23:44;5.43;84.31
75457;SHT31;64036;48.266;14.192;2022-11-27T09:26:11;5.42;84.21
75457;SHT31;64036;48.266;14.192;2022-11-27T09:28:40;5.40;84.06
75457;SHT31;64036;48.266;14.192;2022-11-27T09:31:08;5.39;84.07
75457;SHT31;64036;48.266;14.192;2022-11-27T09:33:37;5.45;84.13
75457;SHT31;64036;48.266;14.192;2022-11-27T09:36:08;5.48;83.93
75457;SHT31;64036;48.266;14.192;2022-11-27T09:38:37;5.50;83.66
75457;SHT31;64036;48.266;14.192;2022-11-27T09:43:48;5.57;83.58
75457;SHT31;64036;48.266;14.192;2022-11-27T09:46:30;5.60;83.50
75457;SHT31;64036;48.266;14.192;2022-11-27T09:49:01;5.68;83.65
75457;SHT31;64036;48.266;14.192;2022-11-27T09:51:50;5.76;83.70
75457;SHT31;64036;48.266;14.192;2022-11-27T09:54:26;5.82;83.45
75457;SHT31;64036;48.266;14.192;2022-11-27T09:57:00;5.86;83.46
75457;SHT31;64036;48.266;14.192;2022-11-27T09:59:28;5.89;83.18
75457;SHT31;64036;48.266;14.192;2022-11-27T10:02:17;5.85;82.82
75457;SHT31;64036;48.266;14.192;2022-11-27T10:04:50;5.81;82.74
75457;SHT31;64036;48.266;14.192;2022-11-27T10:07:20;5.81;82.75
75457;SHT31;64036;48.266;14.192;2022-11-27T10:18:51;5.72;82.74
75457;SHT31;64036;48.266;14.192;2022-11-27T10:21:28;5.73;82.59
75457;SHT31;64036;48.266;14.192;2022-11-27T10:24:25;5.75;82.53
75457;SHT31;64036;48.266;14.192;2022-11-27T10:27:29;5.75;82.39
75457;SHT31;64036;48.266;14.192;2022-11-27T10:30:03;5.71;82.27
75457;SHT31;64036;48.266;14.192;2022-11-27T10:32:39;5.68;82.30
75457;SHT31;64036;48.266;14.192;2022-11-27T10:35:11;5.65;82.37
75457;SHT31;64036;48.266;14.192;2022-11-27T10:37:41;5.62;82.36
75457;SHT31;64036;48.266;14.192;2022-11-27T10:45:20;5.69;82.42
75457;SHT31;64036;48.266;14.192;2022-11-27T10:47:52;5.69;82.50
75457;SHT31;64036;48.266;14.192;2022-11-27T10:50:18;5.76;82.77
75457;SHT31;64036;48.266;14.192;2022-11-27T11:01:44;5.87;82.05
75457;SHT31;64036;48.266;14.192;2022-11-27T11:04:14;5.87;82.18
75457;SHT31;64036;48.266;14.192;2022-11-27T11:06:46;5.90;82.17
75457;SHT31;64036;48.266;14.192;2022-11-27T11:11:43;5.98;82.21
75457;SHT31;64036;48.266;14.192;2022-11-27T11:14:16;5.98;81.86
75457;SHT31;64036;48.266;14.192;2022-11-27T11:16:51;5.96;81.83
75457;SHT31;64036;48.266;14.192;2022-11-27T11:21:48;5.89;81.82
75457;SHT31;64036;48.266;14.192;2022-11-27T11:24:22;5.91;82.07
75457;SHT31;64036;48.266;14.192;2022-11-27T11:26:55;5.91;81.93
75457;SHT31;64036;48.266;14.192;2022-11-27T11:29:32;5.89;81.85
75457;SHT31;64036;48.266;14.192;2022-11-27T11:32:05;5.92;81.87
75457;SHT31;64036;48.266;14.192;2022-11-27T11:34:41;5.99;82.05
75457;SHT31;64036;48.266;14.192;2022-11-27T11:37:43;6.06;82.12
75457;SHT31;64036;48.266;14.192;2022-11-27T11:42:47;6.16;81.94
75457;SHT31;64036;48.266;14.192;2022-11-27T11:45:21;6.18;81.58
75457;SHT31;64036;48.266;14.192;2022-11-27T11:47:48;6.17;81.32
75457;SHT31;64036;48.266;14.192;2022-11-27T11:50:31;6.18;81.26
75457;SHT31;64036;48.266;14.192;2022-11-27T11:53:11;6.21;81.54
75457;SHT31;64036;48.266;14.192;2022-11-27T12:01:33;6.41;81.33
75457;SHT31;64036;48.266;14.192;2022-11-27T12:12:50;6.65;80.60
75457;SHT31;64036;48.266;14.192;2022-11-27T12:15:47;6.72;80.62
75457;SHT31;64036;48.266;14.192;2022-11-27T12:33:40;7.17;78.89
75457;SHT31;64036;48.266;14.192;2022-11-27T12:51:42;7.05;79.32
75457;SHT31;64036;48.266;14.192;2022-11-27T12:57:47;7.29;79.33
75457;SHT31;64036;48.266;14.192;2022-11-27T13:00:24;7.22;79.04
75457;SHT31;64036;48.266;14.192;2022-11-27T13:05:45;7.34;79.19
75457;SHT31;64036;48.266;14.192;2022-11-27T13:11:09;7.53;78.89
75457;SHT31;64036;48.266;14.192;2022-11-27T13:13:51;7.60;78.43
75457;SHT31;64036;48.266;14.192;2022-11-27T13:19:33;7.70;78.00
75457;SHT31;64036;48.266;14.192;2022-11-27T13:22:09;7.70;78.03
75457;SHT31;64036;48.266;14.192;2022-11-27T13:24:40;7.68;77.88
75457;SHT31;64036;48.266;14.192;2022-11-27T13:27:11;7.69;78.01
75457;SHT31;64036;48.266;14.192;2022-11-27T13:32:30;7.66;77.66
75457;SHT31;64036;48.266;14.192;2022-11-27T13:35:55;7.65;78.08
75457;SHT31;64036;48.266;14.192;2022-11-27T13:40:41;7.63;77.52
75457;SHT31;64036;48.266;14.192;2022-11-27T13:43:58;7.61;77.89
75457;SHT31;64036;48.266;14.192;2022-11-27T13:46:11;7.65;78.02
75457;SHT31;64036;48.266;14.192;2022-11-27T13:48:49;7.61;77.79
75457;SHT31;64036;48.266;14.192;2022-11-27T13:51:23;7.63;77.94
75457;SHT31;64036;48.266;14.192;2022-11-27T13:54:05;7.60;77.82
75457;SHT31;64036;48.266;14.192;2022-11-27T13:56:36;7.56;77.42
75457;SHT31;64036;48.266;14.192;2022-11-27T13:59:22;7.52;77.17
75457;SHT31;64036;48.266;14.192;2022-11-27T14:01:56;7.44;77.17
75457;SHT31;64036;48.266;14.192;2022-11-27T14:04:25;7.39;77.28
75457;SHT31;64036;48.266;14.192;2022-11-27T14:06:59;7.39;77.36
75457;SHT31;64036;48.266;14.192;2022-11-27T14:14:56;7.76;76.39
75457;SHT31;64036;48.266;14.192;2022-11-27T14:17:26;7.74;76.39
75457;SHT31;64036;48.266;14.192;2022-11-27T14:20:03;7.71;76.44
75457;SHT31;64036;48.266;14.192;2022-11-27T14:22:49;7.67;76.35
75457;SHT31;64036;48.266;14.192;2022-11-27T14:25:26;7.61;76.43
75457;SHT31;64036;48.266;14.192;2022-11-27T14:27:59;7.62;76.40
75457;SHT31;64036;48.266;14.192;2022-11-27T14:30:46;7.60;76.39
75457;SHT31;64036;48.266;14.192;2022-11-27T14:35:55;7.52;76.37
75457;SHT31;64036;48.266;14.192;2022-11-27T14:38:25;7.47;76.40
75457;SHT31;64036;48.266;14.192;2022-11-27T14:40:53;7.41;76.41
75457;SHT31;64036;48.266;14.192;2022-11-27T14:43:35;7.33;76.53
75457;SHT31;64036;48.266;14.192;2022-11-27T14:46:01;7.23;76.65
75457;SHT31;64036;48.266;14.192;2022-11-27T14:48:29;7.13;76.82
75457;SHT31;64036;48.266;14.192;2022-11-27T14:51:16;7.01;76.94
75457;SHT31;64036;48.266;14.192;2022-11-27T14:53:48;6.88;77.10
75457;SHT31;64036;48.266;14.192;2022-11-27T14:56:16;6.76;77.23
75457;SHT31;64036;48.266;14.192;2022-11-27T14:58:49;6.58;77.46
75457;SHT31;64036;48.266;14.192;2022-11-27T15:01:25;6.39;77.78
75457;SHT31;64036;48.266;14.192;2022-11-27T15:04:01;6.22;78.11
75457;SHT31;64036;48.266;14.192;2022-11-27T15:06:40;6.08;78.38
75457;SHT31;64036;48.266;14.192;2022-11-27T15:09:16;5.97;78.57
75457;SHT31;64036;48.266;14.192;2022-11-27T15:11:51;5.89;78.69
75457;SHT31;64036;48.266;14.192;2022-11-27T15:14:20;5.79;78.87
75457;SHT31;64036;48.266;14.192;2022-11-27T15:16:50;5.70;78.86
75457;SHT31;64036;48.266;14.192;2022-11-27T15:19:21;5.60;78.92
75457;SHT31;64036;48.266;14.192;2022-11-27T15:21:55;5.48;79.21
75457;SHT31;64036;48.266;14.192;2022-11-27T15:24:32;5.38;79.46
75457;SHT31;64036;48.266;14.192;2022-11-27T15:29:41;5.25;79.76
75457;SHT31;64036;48.266;14.192;2022-11-27T15:37:56;5.06;79.77
75457;SHT31;64036;48.266;14.192;2022-11-27T15:40:31;4.98;79.85
75457;SHT31;64036;48.266;14.192;2022-11-27T15:43:12;4.90;79.87
75457;SHT31;64036;48.266;14.192;2022-11-27T15:45:40;4.67;79.67
75457;SHT31;64036;48.266;14.192;2022-11-27T15:48:15;4.62;80.35
75457;SHT31;64036;48.266;14.192;2022-11-27T15:50:46;4.60;80.24
75457;SHT31;64036;48.266;14.192;2022-11-27T15:53:11;4.55;80.43
75457;SHT31;64036;48.266;14.192;2022-11-27T15:55:37;4.49;80.36
75457;SHT31;64036;48.266;14.192;2022-11-27T15:58:02;4.40;80.61
75457;SHT31;64036;48.266;14.192;2022-11-27T16:00:28;4.33;80.90
75457;SHT31;64036;48.266;14.192;2022-11-27T16:02:54;4.28;81.05
75457;SHT31;64036;48.266;14.192;2022-11-27T16:05:19;4.23;81.20
75457;SHT31;64036;48.266;14.192;2022-11-27T16:07:45;4.19;81.32
75457;SHT31;64036;48.266;14.192;2022-11-27T16:10:11;4.15;81.59
75457;SHT31;64036;48.266;14.192;2022-11-27T16:12:37;4.14;81.54
75457;SHT31;64036;48.266;14.192;2022-11-27T16:15:06;4.08;81.40
75457;SHT31;64036;48.266;14.192;2022-11-27T16:17:33;4.01;81.36
75457;SHT31;64036;48.266;14.192;2022-11-27T16:19:59;3.95;81.30
75457;SHT31;64036;48.266;14.192;2022-11-27T16:22:25;3.88;81.25
75457;SHT31;64036;48.266;14.192;2022-11-27T16:24:50;3.79;81.31
75457;SHT31;64036;48.266;14.192;2022-11-27T16:27:16;3.72;81.59
75457;SHT31;64036;48.266;14.192;2022-11-27T16:29:42;3.70;81.93
75457;SHT31;64036;48.266;14.192;2022-11-27T16:32:08;3.69;82.10
75457;SHT31;64036;48.266;14.192;2022-11-27T16:34:33;3.67;82.06
75457;SHT31;64036;48.266;14.192;2022-11-27T16:36:59;3.63;82.11
75457;SHT31;64036;48.266;14.192;2022-11-27T16:39:25;3.61;82.19
75457;SHT31;64036;48.266;14.192;2022-11-27T16:41:51;3.57;82.28
75457;SHT31;64036;48.266;14.192;2022-11-27T16:44:16;3.52;82.39
75457;SHT31;64036;48.266;14.192;2022-11-27T16:46:42;3.48;82.59
75457;SHT31;64036;48.266;14.192;2022-11-27T16:49:08;3.47;82.64
75457;SHT31;64036;48.266;14.192;2022-11-27T16:51:36;3.47;82.72
75457;SHT31;64036;48.266;14.192;2022-11-27T16:54:04;3.22;82.54
75457;SHT31;64036;48.266;14.192;2022-11-27T16:56:32;2.98;83.19
75457;SHT31;64036;48.266;14.192;2022-11-27T16:58:59;2.87;83.62
75457;SHT31;64036;48.266;14.192;2022-11-27T17:01:26;2.81;83.90
75457;SHT31;64036;48.266;14.192;2022-11-27T17:04:01;2.77;84.17
75457;SHT31;64036;48.266;14.192;2022-11-27T17:06:33;2.73;84.37
75457;SHT31;64036;48.266;14.192;2022-11-27T17:09:02;2.70;84.40
75457;SHT31;64036;48.266;14.192;2022-11-27T17:11:31;2.67;84.52
75457;SHT31;64036;48.266;14.192;2022-11-27T17:13:59;2.63;84.65
75457;SHT31;64036;48.266;14.192;2022-11-27T17:16:27;2.60;84.81
75457;SHT31;64036;48.266;14.192;2022-11-27T17:18:53;2.82;85.27
75457;SHT31;64036;48.266;14.192;2022-11-27T17:21:20;3.05;84.83
75457;SHT31;64036;48.266;14.192;2022-11-27T17:23:50;3.16;84.49
75457;SHT31;64036;48.266;14.192;2022-11-27T17:26:20;3.22;84.19
75457;SHT31;64036;48.266;14.192;2022-11-27T17:28:47;3.26;84.02
75457;SHT31;64036;48.266;14.192;2022-11-27T17:31:14;3.26;83.79
75457;SHT31;64036;48.266;14.192;2022-11-27T17:33:43;3.22;83.66
75457;SHT31;64036;48.266;14.192;2022-11-27T17:36:09;3.18;83.61
75457;SHT31;64036;48.266;14.192;2022-11-27T17:38:35;3.15;83.76
75457;SHT31;64036;48.266;14.192;2022-11-27T17:41:02;3.17;83.82
75457;SHT31;64036;48.266;14.192;2022-11-27T17:43:32;3.15;83.78
75457;SHT31;64036;48.266;14.192;2022-11-27T17:45:59;3.15;83.83
75457;SHT31;64036;48.266;14.192;2022-11-27T17:48:25;3.17;83.81
75457;SHT31;64036;48.266;14.192;2022-11-27T17:50:51;3.16;83.70
75457;SHT31;64036;48.266;14.192;2022-11-27T17:53:18;3.14;83.60
75457;SHT31;64036;48.266;14.192;2022-11-27T17:55:44;3.14;83.60
75457;SHT31;64036;48.266;14.192;2022-11-27T17:58:10;3.06;83.29
75457;SHT31;64036;48.266;14.192;2022-11-27T18:00:36;2.75;83.46
75457;SHT31;64036;48.266;14.192;2022-11-27T18:03:03;2.58;83.99
75457;SHT31;64036;48.266;14.192;2022-11-27T18:05:29;2.50;84.37
75457;SHT31;64036;48.266;14.192;2022-11-27T18:07:55;2.45;84.70
75457;SHT31;64036;48.266;14.192;2022-11-27T18:10:21;2.41;85.00